Time;durP1;ratioP1;P1;durP2;ratioP2;P2;SDS_P1;SDS_P2;PMS_P1;PMS_P2;Temp;Humidity;BMP_temperature;BMP_pressure;BME280_temperature;BME280_humidity;BME280_pressure;Samples;Min_cycle;Max_cycle;Signal;HPM_P1;HPM_P2
2023/08/03 04:06:00;;;;;;;3.03;0.40;;;17.50;99.90;;;;;;5328455;23;20508;-59
2023/08/03 04:08:25;;;;;;;6.63;1.30;;;17.50;99.90;;;;;;5013665;28;20834;-59
2023/08/03 04:10:51;;;;;;;1.80;0.90;;;17.50;99.90;;;;;;5013536;28;20189;-59
2023/08/03 04:13:16;;;;;;;0.73;0.73;;;17.50;99.90;;;;;;4995577;28;20633;-61
2023/08/03 04:15:42;;;;;;;1.23;0.50;;;17.50;99.90;;;;;;5001045;28;20266;-59
2023/08/03 04:18:07;;;;;;;1.33;0.73;;;17.50;99.90;;;;;;4993898;28;20176;-59
2023/08/03 04:20:33;;;;;;;0.83;0.80;;;17.50;99.90;;;;;;4992429;28;20677;-59
2023/08/03 04:22:59;;;;;;;1.03;0.93;;;17.50;99.90;;;;;;4993105;28;20552;-59
2023/08/03 04:25:24;;;;;;;0.60;0.60;;;17.40;99.90;;;;;;4993138;28;20250;-60
2023/08/03 04:27:50;;;;;;;1.70;0.67;;;17.50;99.90;;;;;;4993853;28;20657;-59
2023/08/03 04:30:15;;;;;;;0.70;0.53;;;17.40;99.90;;;;;;4993595;28;20185;-60
2023/08/03 04:32:41;;;;;;;0.70;0.40;;;17.40;99.90;;;;;;4993755;28;20578;-59
2023/08/03 04:35:07;;;;;;;0.97;0.77;;;17.40;99.90;;;;;;4992002;28;20192;-59
2023/08/03 04:37:33;;;;;;;1.30;0.40;;;17.40;99.90;;;;;;4993730;28;20260;-59
2023/08/03 04:39:58;;;;;;;0.50;0.50;;;17.40;99.90;;;;;;4993237;28;20456;-59
2023/08/03 04:42:24;;;;;;;1.83;0.97;;;17.40;99.90;;;;;;4993703;28;20293;-61
2023/08/03 04:44:49;;;;;;;1.03;0.60;;;17.40;99.90;;;;;;4993148;28;20221;-60
2023/08/03 04:47:16;;;;;;;0.80;0.50;;;17.50;99.90;;;;;;4993731;28;20179;-61
2023/08/03 04:49:41;;;;;;;0.80;0.50;;;17.70;99.90;;;;;;4993128;28;20235;-60
2023/08/03 04:52:07;;;;;;;1.60;0.80;;;17.90;99.90;;;;;;4993665;28;20486;-61
2023/08/03 04:54:32;;;;;;;0.70;0.60;;;17.90;99.90;;;;;;4994302;28;20212;-60
2023/08/03 04:56:58;;;;;;;1.37;0.60;;;18.10;99.90;;;;;;4979611;28;20182;-60
2023/08/03 04:59:24;;;;;;;0.67;0.40;;;18.20;99.90;;;;;;4997053;28;20260;-61
2023/08/03 05:01:50;;;;;;;2.87;0.87;;;18.20;99.90;;;;;;4996828;28;20301;-61
2023/08/03 05:04:15;;;;;;;1.07;0.43;;;18.30;99.90;;;;;;4996655;28;20322;-60
2023/08/03 05:06:41;;;;;;;0.80;0.80;;;18.30;99.90;;;;;;4996851;28;20477;-60
2023/08/03 05:09:06;;;;;;;1.57;0.67;;;18.30;99.90;;;;;;4996696;28;20171;-61
2023/08/03 05:11:32;;;;;;;1.73;0.60;;;18.40;99.90;;;;;;4997031;28;20262;-61
2023/08/03 05:13:58;;;;;;;0.57;0.50;;;18.40;99.90;;;;;;4996591;28;20187;-61
2023/08/03 05:16:24;;;;;;;0.40;0.37;;;18.60;99.90;;;;;;4997409;28;20210;-60
2023/08/03 05:18:51;;;;;;;2.67;0.70;;;18.60;99.90;;;;;;4997414;28;20534;-60
2023/08/03 05:21:17;;;;;;;0.30;0.30;;;18.60;99.90;;;;;;4996596;28;20492;-61
2023/08/03 05:23:43;;;;;;;0.50;0.40;;;18.70;99.90;;;;;;4996756;28;20418;-61
2023/08/03 05:26:08;;;;;;;0.30;0.30;;;18.70;99.90;;;;;;4996605;28;20409;-60
2023/08/03 05:28:34;;;;;;;0.60;0.40;;;18.70;99.90;;;;;;4996645;28;20168;-59
2023/08/03 05:30:59;;;;;;;1.50;1.40;;;18.70;99.90;;;;;;4996214;28;20184;-60
2023/08/03 05:33:27;;;;;;;1.53;0.30;;;18.70;99.90;;;;;;4996265;28;20187;-60
2023/08/03 05:35:52;;;;;;;1.23;0.50;;;18.70;99.90;;;;;;4996284;28;20287;-60
2023/08/03 05:38:18;;;;;;;0.30;0.30;;;18.60;99.90;;;;;;4996458;28;20453;-60
2023/08/03 05:40:44;;;;;;;0.30;0.30;;;18.60;99.90;;;;;;4995850;28;20638;-61
2023/08/03 05:43:10;;;;;;;0.90;0.70;;;18.60;99.90;;;;;;4996224;28;20426;-60
2023/08/03 05:45:40;;;;;;;0.87;0.63;;;18.50;99.90;;;;;;4995869;28;20245;-60
2023/08/03 05:48:13;;;;;;;0.50;0.50;;;18.50;99.90;;;;;;4996099;28;20445;-60
2023/08/03 05:50:44;;;;;;;0.63;0.63;;;18.50;99.90;;;;;;4995753;28;20426;-60
2023/08/03 05:53:11;;;;;;;0.70;0.60;;;18.50;99.90;;;;;;4995972;28;20441;-59
2023/08/03 05:55:37;;;;;;;0.33;0.33;;;18.60;99.90;;;;;;4995633;28;20484;-60
2023/08/03 05:58:04;;;;;;;1.87;0.50;;;18.60;99.90;;;;;;4996377;28;20417;-59
2023/08/03 06:00:30;;;;;;;0.30;0.30;;;18.60;99.90;;;;;;4995931;28;20458;-60
2023/08/03 06:02:59;;;;;;;0.70;0.60;;;18.60;99.90;;;;;;4996262;28;20920;-60
2023/08/03 06:05:46;;;;;;;0.50;0.50;;;18.60;99.90;;;;;;4995557;28;20622;-65
2023/08/03 06:08:17;;;;;;;0.57;0.57;;;18.60;99.90;;;;;;4996274;28;20423;-59
2023/08/03 06:10:48;;;;;;;0.50;0.50;;;18.80;99.90;;;;;;4995720;28;20422;-60
2023/08/03 06:13:16;;;;;;;0.70;0.63;;;18.80;99.90;;;;;;4996071;28;20413;-61
2023/08/03 06:15:43;;;;;;;0.73;0.50;;;18.90;99.90;;;;;;4995339;28;20787;-62
2023/08/03 06:18:11;;;;;;;0.60;0.60;;;19.00;99.90;;;;;;4995659;28;20417;-62
2023/08/03 06:20:43;;;;;;;0.40;0.40;;;19.00;99.90;;;;;;4995451;28;20541;-61
2023/08/03 06:23:39;;;;;;;1.03;0.40;;;19.10;99.90;;;;;;4996098;28;20438;-60
2023/08/03 06:26:05;;;;;;;0.40;0.40;;;19.20;99.90;;;;;;4979571;28;20447;-61
2023/08/03 06:28:31;;;;;;;0.30;0.30;;;19.30;99.90;;;;;;4996187;28;20538;-60
2023/08/03 06:30:57;;;;;;;0.63;0.50;;;19.30;99.90;;;;;;4995309;28;20187;-61
2023/08/03 06:33:22;;;;;;;1.80;0.67;;;19.30;99.90;;;;;;4995317;28;20434;-61
2023/08/03 06:35:51;;;;;;;0.40;0.40;;;19.40;99.90;;;;;;4995711;28;20210;-61
2023/08/03 06:38:21;;;;;;;2.73;0.60;;;19.40;99.90;;;;;;4995281;28;20172;-60
2023/08/03 06:40:47;;;;;;;0.50;0.40;;;19.40;99.90;;;;;;4995265;28;20785;-61
2023/08/03 06:43:13;;;;;;;0.50;0.40;;;19.40;99.90;;;;;;4994873;28;20906;-61
2023/08/03 06:45:41;;;;;;;0.50;0.50;;;19.50;99.90;;;;;;4994478;28;20449;-60
2023/08/03 06:48:07;;;;;;;1.00;0.60;;;19.50;99.90;;;;;;4977532;28;20570;-59
2023/08/03 06:50:34;;;;;;;0.40;0.40;;;19.60;99.90;;;;;;4995139;28;20422;-60
2023/08/03 06:53:01;;;;;;;1.23;0.80;;;19.60;99.90;;;;;;4994746;28;20415;-59
2023/08/03 06:55:27;;;;;;;3.30;0.73;;;19.80;99.90;;;;;;4994504;28;20526;-60
2023/08/03 06:57:53;;;;;;;0.63;0.63;;;19.90;99.90;;;;;;4994786;28;21020;-60
2023/08/03 07:00:18;;;;;;;3.03;0.47;;;20.00;99.90;;;;;;4994723;28;20182;-60
2023/08/03 07:02:49;;;;;;;1.10;0.80;;;20.10;99.90;;;;;;4977269;28;20423;-60
2023/08/03 07:05:16;;;;;;;2.60;1.60;;;20.20;99.90;;;;;;4976955;28;20306;-59
2023/08/03 07:07:42;;;;;;;0.63;0.43;;;20.40;99.90;;;;;;4977218;28;20522;-60
2023/08/03 07:10:08;;;;;;;0.60;0.40;;;20.50;99.70;;;;;;4994713;28;20164;-68
2023/08/03 07:12:37;;;;;;;1.07;0.50;;;20.60;99.20;;;;;;4977091;28;20180;-61
2023/08/03 07:15:04;;;;;;;3.33;0.50;;;20.80;98.60;;;;;;4993423;28;20258;-63
2023/08/03 07:17:30;;;;;;;0.30;0.30;;;20.80;98.10;;;;;;4994209;28;20435;-60
2023/08/03 07:19:56;;;;;;;1.63;0.60;;;20.90;97.50;;;;;;4994428;28;20781;-61
2023/08/03 07:22:22;;;;;;;0.50;0.43;;;20.90;97.60;;;;;;4994387;28;20464;-61
2023/08/03 07:24:48;;;;;;;0.50;0.50;;;21.00;97.80;;;;;;4993923;28;20527;-59
2023/08/03 07:27:14;;;;;;;0.53;0.53;;;21.10;98.00;;;;;;4994784;28;20403;-59
2023/08/03 07:29:41;;;;;;;0.40;0.40;;;21.30;97.40;;;;;;4994612;28;20429;-60
2023/08/03 07:32:07;;;;;;;0.60;0.50;;;21.60;97.80;;;;;;4994488;28;20528;-60
2023/08/03 07:34:32;;;;;;;0.50;0.50;;;21.80;97.30;;;;;;4993856;28;20447;-60
2023/08/03 07:36:59;;;;;;;0.50;0.50;;;22.10;96.00;;;;;;4995018;28;20489;-60
2023/08/03 07:39:24;;;;;;;0.97;0.50;;;22.10;96.50;;;;;;4994366;28;20179;-61
2023/08/03 07:41:50;;;;;;;0.30;0.30;;;22.20;96.00;;;;;;4994002;28;20810;-61
2023/08/03 07:44:16;;;;;;;0.40;0.30;;;22.30;96.20;;;;;;4993443;28;20187;-61
2023/08/03 07:46:43;;;;;;;0.60;0.60;;;22.40;95.40;;;;;;4993793;28;20195;-61
2023/08/03 07:49:09;;;;;;;0.40;0.40;;;22.70;95.20;;;;;;4994287;28;20385;-62
2023/08/03 07:51:35;;;;;;;1.33;0.80;;;22.80;94.60;;;;;;4994221;28;20927;-61
2023/08/03 07:54:00;;;;;;;0.60;0.50;;;23.30;94.20;;;;;;4993593;28;20948;-60
2023/08/03 07:56:26;;;;;;;0.70;0.50;;;23.50;93.80;;;;;;4993894;28;20677;-60
2023/08/03 07:58:51;;;;;;;0.40;0.40;;;23.50;93.60;;;;;;4994139;28;20168;-60
2023/08/03 08:01:18;;;;;;;0.30;0.30;;;23.50;92.60;;;;;;4993987;28;20195;-59
2023/08/03 08:03:44;;;;;;;0.33;0.30;;;23.30;92.90;;;;;;4993224;28;20664;-60
2023/08/03 08:06:20;;;;;;;0.93;0.67;;;23.30;93.20;;;;;;4993443;28;20446;-60
2023/08/03 08:08:47;;;;;;;0.60;0.50;;;23.20;93.30;;;;;;4993745;28;20533;-60
2023/08/03 08:11:15;;;;;;;0.50;0.50;;;23.30;93.50;;;;;;4993983;28;20397;-59
2023/08/03 08:13:42;;;;;;;0.47;0.47;;;23.50;93.40;;;;;;4993198;28;20400;-60
2023/08/03 08:16:10;;;;;;;0.33;0.33;;;23.70;92.80;;;;;;4993839;28;20788;-60
2023/08/03 08:18:36;;;;;;;0.30;0.30;;;23.80;92.60;;;;;;4993570;28;20413;-60
2023/08/03 08:21:04;;;;;;;0.47;0.30;;;23.90;92.20;;;;;;4976686;28;20491;-60
2023/08/03 08:23:30;;;;;;;0.50;0.40;;;23.80;92.10;;;;;;4992840;28;20471;-59
2023/08/03 08:25:56;;;;;;;1.30;0.47;;;23.70;92.50;;;;;;4993899;28;20432;-60
2023/08/03 08:28:22;;;;;;;0.63;0.60;;;23.60;92.60;;;;;;4993853;28;20453;-60
2023/08/03 08:30:48;;;;;;;0.60;0.40;;;23.60;92.60;;;;;;4997168;28;20888;-60
2023/08/03 08:33:15;;;;;;;0.40;0.40;;;23.80;92.90;;;;;;4997361;28;20209;-60
2023/08/03 08:35:41;;;;;;;0.40;0.40;;;24.00;92.50;;;;;;4996981;28;20611;-60
2023/08/03 08:38:09;;;;;;;0.50;0.50;;;24.30;92.20;;;;;;4997635;28;20424;-60
2023/08/03 08:40:39;;;;;;;1.00;0.73;;;24.20;92.60;;;;;;4997372;28;20423;-60
2023/08/03 08:43:05;;;;;;;0.60;0.40;;;24.00;92.20;;;;;;4997137;28;20744;-60
2023/08/03 08:45:35;;;;;;;0.67;0.67;;;23.90;92.00;;;;;;4996976;28;20401;-61
2023/08/03 08:48:01;;;;;;;0.33;0.33;;;23.70;92.50;;;;;;4997460;28;20389;-60
2023/08/03 08:50:26;;;;;;;0.53;0.53;;;23.60;92.60;;;;;;4997512;28;20421;-61
2023/08/03 08:52:53;;;;;;;0.60;0.50;;;23.60;92.80;;;;;;4997076;28;20919;-61
2023/08/03 08:55:24;;;;;;;1.73;0.33;;;23.50;92.60;;;;;;4988063;28;20253;-61
2023/08/03 08:57:50;;;;;;;0.57;0.53;;;23.50;92.60;;;;;;4997532;28;20399;-61
2023/08/03 09:00:17;;;;;;;0.40;0.40;;;23.60;93.00;;;;;;4997074;28;20385;-62
2023/08/03 09:02:43;;;;;;;0.50;0.50;;;23.80;92.40;;;;;;4997416;28;20394;-61
2023/08/03 09:05:17;;;;;;;0.70;0.60;;;23.90;92.00;;;;;;4996370;28;20405;-61
2023/08/03 09:07:42;;;;;;;0.60;0.40;;;24.00;91.60;;;;;;4996959;28;20434;-61
2023/08/03 09:10:09;;;;;;;0.40;0.33;;;24.00;91.90;;;;;;4997154;28;20390;-60
2023/08/03 09:12:34;;;;;;;0.50;0.40;;;24.00;91.70;;;;;;4996816;28;20194;-62
2023/08/03 09:15:01;;;;;;;0.50;0.50;;;23.80;92.10;;;;;;4995936;28;20413;-60
2023/08/03 09:17:27;;;;;;;1.23;0.40;;;23.70;92.50;;;;;;4996643;28;20258;-62
2023/08/03 09:19:54;;;;;;;0.40;0.30;;;23.50;93.10;;;;;;4996375;28;20448;-60
2023/08/03 09:22:21;;;;;;;0.70;0.50;;;23.40;92.90;;;;;;4996701;28;20440;-61
2023/08/03 09:25:05;;;;;;;0.40;0.30;;;23.40;93.10;;;;;;4996406;28;20397;-60
2023/08/03 09:27:31;;;;;;;0.90;0.40;;;23.20;92.90;;;;;;4996168;28;20740;-61
2023/08/03 09:30:04;;;;;;;1.23;0.70;;;23.10;93.10;;;;;;4996747;28;20413;-60
2023/08/03 09:32:35;;;;;;;0.50;0.50;;;23.00;92.90;;;;;;4996731;28;20175;-61
2023/08/03 09:35:02;;;;;;;1.13;0.50;;;22.80;93.40;;;;;;4996044;28;20402;-60
2023/08/03 09:37:35;;;;;;;0.30;0.30;;;22.80;93.20;;;;;;4996301;28;20407;-61
2023/08/03 09:40:04;;;;;;;0.40;0.40;;;22.70;93.10;;;;;;4996063;28;20449;-61
2023/08/03 09:42:33;;;;;;;0.57;0.40;;;22.60;93.30;;;;;;4996438;28;20445;-62
2023/08/03 09:45:03;;;;;;;0.30;0.20;;;22.70;93.80;;;;;;4995932;28;20829;-61
2023/08/03 09:47:34;;;;;;;0.50;0.50;;;22.70;93.90;;;;;;4978645;28;20777;-62
2023/08/03 09:50:00;;;;;;;0.90;0.40;;;22.80;94.10;;;;;;4996182;28;20389;-60
2023/08/03 09:52:27;;;;;;;1.43;0.30;;;22.80;93.40;;;;;;4996060;28;20440;-61
2023/08/03 09:55:06;;;;;;;0.30;0.30;;;22.70;93.40;;;;;;4995597;28;20202;-60
2023/08/03 09:57:39;;;;;;;0.47;0.40;;;22.70;93.30;;;;;;4996401;28;20411;-61
2023/08/03 10:00:06;;;;;;;0.50;0.30;;;22.60;93.30;;;;;;4996350;28;20381;-61
2023/08/03 10:02:51;;;;;;;0.40;0.30;;;22.60;93.50;;;;;;4995996;28;20469;-59
2023/08/03 10:05:19;;;;;;;0.50;0.30;;;22.60;93.30;;;;;;4978039;28;20435;-61
2023/08/03 10:08:04;;;;;;;0.40;0.40;;;22.60;93.30;;;;;;4995535;28;20413;-59
2023/08/03 10:10:35;;;;;;;0.40;0.40;;;23.10;94.20;;;;;;4996117;28;20426;-61
2023/08/03 10:13:06;;;;;;;0.40;0.40;;;24.00;93.10;;;;;;4995879;28;20765;-59
2023/08/03 10:15:32;;;;;;;0.43;0.40;;;24.70;92.10;;;;;;4995214;28;20879;-60
2023/08/03 10:17:59;;;;;;;0.40;0.40;;;25.10;91.90;;;;;;4995269;28;20469;-62
2023/08/03 10:20:25;;;;;;;0.37;0.37;;;25.20;91.30;;;;;;4995583;28;20524;-60
2023/08/03 10:23:07;;;;;;;0.87;0.50;;;25.10;90.50;;;;;;4995990;28;20397;-61
2023/08/03 10:25:33;;;;;;;0.77;0.47;;;24.70;90.50;;;;;;4995861;28;20418;-60
2023/08/03 10:28:13;;;;;;;0.60;0.40;;;24.40;90.90;;;;;;4996063;28;20905;-61
2023/08/03 10:31:14;;;;;;;1.20;0.60;;;24.00;91.40;;;;;;4976392;28;20195;-61
2023/08/03 10:33:51;;;;;;;0.80;0.80;;;23.80;92.70;;;;;;4971909;28;20880;-61
2023/08/03 10:36:33;;;;;;;0.40;0.40;;;23.60;92.50;;;;;;4975968;28;20406;-59
2023/08/03 10:39:11;;;;;;;0.40;0.40;;;23.60;92.30;;;;;;4982256;28;20427;-60
2023/08/03 10:41:42;;;;;;;0.40;0.40;;;23.60;92.30;;;;;;4995222;28;20474;-59
2023/08/03 10:44:14;;;;;;;0.40;0.40;;;23.60;92.70;;;;;;4994895;28;20780;-61
2023/08/03 10:46:58;;;;;;;0.40;0.30;;;23.60;92.20;;;;;;4977933;28;20382;-60
2023/08/03 10:49:24;;;;;;;0.50;0.40;;;23.60;92.50;;;;;;4977731;28;20393;-61
2023/08/03 10:51:51;;;;;;;0.37;0.37;;;23.50;92.30;;;;;;4994460;28;20422;-60
2023/08/03 10:54:38;;;;;;;0.40;0.40;;;23.40;92.50;;;;;;4994833;28;20541;-60
2023/08/03 10:57:09;;;;;;;0.73;0.50;;;23.20;92.70;;;;;;4994591;28;20426;-59
2023/08/03 10:59:39;;;;;;;0.90;0.40;;;23.10;93.10;;;;;;4994829;28;20407;-60
2023/08/03 11:02:22;;;;;;;0.43;0.43;;;23.10;93.30;;;;;;4994846;28;20450;-60
2023/08/03 11:04:53;;;;;;;0.33;0.30;;;23.00;93.00;;;;;;4994423;28;20842;-60
2023/08/03 11:07:24;;;;;;;0.70;0.60;;;22.90;92.90;;;;;;4995147;28;20912;-61
2023/08/03 11:09:52;;;;;;;0.30;0.30;;;22.80;93.00;;;;;;4994976;28;20377;-60
2023/08/03 11:12:18;;;;;;;0.50;0.50;;;22.80;93.30;;;;;;4994552;28;20437;-61
2023/08/03 11:14:49;;;;;;;0.40;0.37;;;22.80;93.50;;;;;;4994840;28;20405;-59
2023/08/03 11:17:15;;;;;;;0.63;0.30;;;22.80;93.80;;;;;;4994405;28;20424;-61
2023/08/03 11:19:42;;;;;;;0.30;0.20;;;23.00;93.70;;;;;;4994679;28;20397;-59
2023/08/03 11:22:08;;;;;;;0.40;0.40;;;23.10;93.30;;;;;;4994478;28;20463;-60
2023/08/03 11:24:34;;;;;;;1.03;0.40;;;23.30;93.40;;;;;;4976535;28;20497;-60
2023/08/03 11:27:03;;;;;;;0.40;0.40;;;23.50;92.90;;;;;;4994088;28;20830;-61
2023/08/03 11:29:29;;;;;;;0.40;0.30;;;23.80;93.30;;;;;;4994352;28;20410;-61
2023/08/03 11:31:55;;;;;;;0.83;0.83;;;24.10;94.20;;;;;;4994371;28;20773;-61
2023/08/03 11:34:23;;;;;;;0.80;0.60;;;24.40;92.70;;;;;;4993943;28;20390;-60
2023/08/03 11:36:50;;;;;;;0.87;0.53;;;24.60;91.90;;;;;;4994386;28;20184;-60
2023/08/03 11:39:16;;;;;;;0.50;0.50;;;24.60;92.10;;;;;;4994089;28;20411;-61
2023/08/03 11:41:42;;;;;;;0.60;0.60;;;24.60;91.10;;;;;;4994304;28;20445;-61
2023/08/03 11:44:08;;;;;;;0.57;0.50;;;24.60;90.70;;;;;;4994009;28;20448;-61
2023/08/03 11:46:34;;;;;;;0.30;0.30;;;24.50;91.50;;;;;;4976824;28;20493;-60
2023/08/03 11:49:02;;;;;;;0.30;0.30;;;24.50;92.30;;;;;;4977021;28;20568;-61
2023/08/03 11:51:31;;;;;;;0.40;0.40;;;24.70;91.50;;;;;;4994014;28;20538;-60
2023/08/03 11:54:01;;;;;;;0.30;0.23;;;24.80;91.50;;;;;;4993845;28;20394;-61
2023/08/03 11:56:26;;;;;;;0.60;0.50;;;25.10;91.40;;;;;;4993672;28;20436;-61
2023/08/03 11:58:52;;;;;;;0.70;0.53;;;25.30;92.50;;;;;;4994269;28;20411;-61
2023/08/03 12:01:24;;;;;;;0.40;0.40;;;25.40;91.10;;;;;;4994082;28;20204;-61
2023/08/03 12:03:49;;;;;;;0.37;0.37;;;25.50;90.10;;;;;;4997089;28;20578;-61
2023/08/03 12:06:15;;;;;;;0.50;0.50;;;25.40;89.50;;;;;;5001273;28;20492;-61
2023/08/03 12:08:41;;;;;;;0.50;0.40;;;25.30;90.20;;;;;;5001838;28;20185;-60
2023/08/03 12:11:07;;;;;;;0.40;0.33;;;25.40;91.80;;;;;;5001147;28;20177;-62
2023/08/03 12:13:33;;;;;;;0.40;0.30;;;25.40;90.90;;;;;;5000117;28;20421;-60
2023/08/03 12:15:59;;;;;;;0.40;0.30;;;25.50;90.20;;;;;;5000289;28;20982;-61
2023/08/03 12:18:25;;;;;;;0.67;0.30;;;25.50;90.00;;;;;;5000253;28;20186;-60
2023/08/03 12:20:51;;;;;;;0.40;0.40;;;25.40;90.30;;;;;;5000461;28;20213;-59
2023/08/03 12:23:18;;;;;;;0.60;0.40;;;25.40;90.60;;;;;;5000207;28;20402;-62
2023/08/03 12:25:43;;;;;;;0.40;0.40;;;25.30;90.20;;;;;;5000205;28;20192;-61
2023/08/03 12:28:09;;;;;;;0.40;0.30;;;25.40;90.10;;;;;;4999410;28;20432;-60
2023/08/03 12:30:35;;;;;;;0.60;0.43;;;25.20;89.20;;;;;;4999520;28;20635;-61
2023/08/03 12:33:01;;;;;;;0.50;0.37;;;25.00;89.30;;;;;;5000344;28;20180;-60
2023/08/03 12:35:27;;;;;;;0.30;0.30;;;24.90;90.40;;;;;;4982520;28;20222;-60
2023/08/03 12:37:53;;;;;;;0.50;0.50;;;24.80;91.00;;;;;;5000425;28;20187;-60
2023/08/03 12:40:18;;;;;;;0.50;0.50;;;24.80;91.80;;;;;;5000038;28;20966;-60
2023/08/03 12:42:44;;;;;;;0.40;0.40;;;25.10;90.90;;;;;;5000459;28;20207;-60
2023/08/03 12:45:10;;;;;;;1.23;0.50;;;25.20;90.30;;;;;;4999625;28;20199;-59
2023/08/03 12:47:37;;;;;;;0.60;0.40;;;25.20;90.60;;;;;;5000158;28;20183;-59
2023/08/03 12:50:03;;;;;;;0.30;0.30;;;25.20;91.20;;;;;;4999977;28;20405;-59
2023/08/03 12:52:29;;;;;;;0.80;0.30;;;25.10;89.80;;;;;;4982680;28;20450;-59
2023/08/03 12:54:55;;;;;;;0.97;0.40;;;25.00;90.00;;;;;;4999707;28;20522;-60
2023/08/03 12:57:21;;;;;;;0.87;0.70;;;24.90;90.50;;;;;;5000189;28;20585;-61
2023/08/03 12:59:46;;;;;;;0.80;0.30;;;24.80;90.70;;;;;;4999636;28;20397;-60
2023/08/03 13:02:12;;;;;;;0.70;0.40;;;24.70;91.60;;;;;;4999969;28;20298;-59
2023/08/03 13:04:37;;;;;;;0.30;0.30;;;24.60;90.90;;;;;;4999776;28;20198;-59
2023/08/03 13:07:03;;;;;;;0.40;0.40;;;24.40;91.40;;;;;;5000005;28;20191;-60
2023/08/03 13:09:29;;;;;;;0.40;0.40;;;24.30;91.80;;;;;;4999610;28;20176;-60
2023/08/03 13:11:56;;;;;;;0.50;0.37;;;24.20;91.50;;;;;;5000063;28;20452;-59
2023/08/03 13:14:22;;;;;;;0.40;0.40;;;24.20;91.40;;;;;;4998263;28;20180;-60
2023/08/03 13:16:48;;;;;;;0.70;0.57;;;24.20;91.30;;;;;;4996390;28;20496;-60
2023/08/03 13:19:14;;;;;;;0.60;0.40;;;24.10;92.40;;;;;;4996653;28;20662;-61
2023/08/03 13:21:39;;;;;;;0.40;0.40;;;24.20;92.40;;;;;;4996817;28;20238;-61
2023/08/03 13:24:05;;;;;;;0.40;0.40;;;24.30;92.00;;;;;;4996477;28;20659;-61
2023/08/03 13:26:31;;;;;;;0.40;0.40;;;24.30;92.10;;;;;;4996660;28;20657;-60
2023/08/03 13:28:56;;;;;;;0.93;0.77;;;24.40;91.90;;;;;;4996378;28;20180;-60
2023/08/03 13:31:22;;;;;;;0.50;0.47;;;24.40;92.10;;;;;;4996773;28;20266;-59
2023/08/03 13:33:47;;;;;;;0.73;0.73;;;24.40;91.90;;;;;;4996143;28;20179;-60
2023/08/03 13:36:13;;;;;;;1.53;1.43;;;24.30;92.20;;;;;;4996434;28;20206;-60
2023/08/03 13:38:39;;;;;;;0.70;0.30;;;24.30;92.80;;;;;;4996218;28;20176;-59
2023/08/03 13:41:05;;;;;;;1.37;0.67;;;24.30;92.80;;;;;;4996450;28;20207;-59
2023/08/03 13:43:30;;;;;;;0.40;0.40;;;24.40;92.10;;;;;;4996075;28;20168;-59
2023/08/03 13:45:56;;;;;;;0.80;0.60;;;24.50;92.60;;;;;;4996299;28;20443;-61
2023/08/03 13:48:22;;;;;;;0.40;0.40;;;24.50;92.80;;;;;;4996587;28;20276;-59
2023/08/03 13:50:48;;;;;;;0.40;0.30;;;24.50;92.40;;;;;;4996187;28;20176;-60
2023/08/03 13:53:14;;;;;;;0.30;0.30;;;24.40;92.70;;;;;;4978747;28;20171;-60
2023/08/03 13:55:40;;;;;;;0.90;0.50;;;24.40;92.60;;;;;;4995622;28;20927;-61
2023/08/03 13:58:06;;;;;;;0.50;0.50;;;24.30;93.00;;;;;;4996201;28;20182;-61
2023/08/03 14:00:34;;;;;;;0.60;0.60;;;24.20;92.60;;;;;;4995799;28;20226;-61
2023/08/03 14:03:00;;;;;;;0.50;0.40;;;24.30;93.10;;;;;;4995982;28;20889;-60
2023/08/03 14:05:27;;;;;;;0.60;0.60;;;24.30;92.70;;;;;;4995543;28;20401;-61
2023/08/03 14:07:52;;;;;;;0.87;0.87;;;24.30;92.30;;;;;;4995576;28;20398;-61
2023/08/03 14:10:18;;;;;;;0.43;0.43;;;24.20;92.90;;;;;;4995778;28;20404;-61
2023/08/03 14:12:43;;;;;;;0.40;0.40;;;24.30;93.40;;;;;;4995871;28;20203;-61
2023/08/03 14:15:10;;;;;;;0.50;0.40;;;24.30;93.30;;;;;;4995202;28;20203;-59
2023/08/03 14:17:36;;;;;;;1.17;0.40;;;24.30;92.60;;;;;;4995526;28;20171;-59
2023/08/03 14:20:04;;;;;;;1.37;0.70;;;24.20;92.70;;;;;;4995448;28;20425;-61
2023/08/03 14:22:30;;;;;;;0.40;0.40;;;24.20;92.60;;;;;;4995681;28;20452;-61
2023/08/03 14:24:56;;;;;;;0.60;0.40;;;24.20;92.60;;;;;;4995069;28;20431;-59
2023/08/03 14:27:22;;;;;;;0.40;0.40;;;24.30;93.10;;;;;;4994447;28;20401;-61
2023/08/03 14:29:47;;;;;;;0.50;0.50;;;24.40;92.90;;;;;;4977620;28;20314;-59
2023/08/03 14:32:13;;;;;;;0.60;0.50;;;24.50;93.00;;;;;;4995366;28;20183;-60
2023/08/03 14:34:38;;;;;;;0.67;0.67;;;24.60;93.30;;;;;;4994872;28;20202;-60
2023/08/03 14:37:06;;;;;;;0.37;0.33;;;24.80;92.40;;;;;;4995721;28;20545;-59
2023/08/03 14:39:35;;;;;;;0.40;0.40;;;24.90;91.70;;;;;;4994932;28;20262;-61
2023/08/03 14:42:01;;;;;;;0.50;0.30;;;25.00;91.90;;;;;;4994932;28;20580;-61
2023/08/03 14:44:27;;;;;;;0.60;0.60;;;25.10;90.80;;;;;;4994903;28;20438;-61
2023/08/03 14:46:53;;;;;;;0.63;0.40;;;25.00;90.70;;;;;;4995136;28;20435;-60
2023/08/03 14:49:18;;;;;;;0.93;0.40;;;25.00;91.20;;;;;;4994554;28;20389;-60
2023/08/03 14:51:44;;;;;;;0.40;0.40;;;24.80;90.60;;;;;;4995003;28;20963;-59
2023/08/03 14:54:10;;;;;;;0.40;0.40;;;24.70;90.30;;;;;;4994473;28;20187;-60
2023/08/03 14:56:35;;;;;;;0.40;0.40;;;24.60;91.70;;;;;;4994943;28;20218;-59
2023/08/03 14:59:02;;;;;;;0.40;0.37;;;24.60;93.10;;;;;;4994583;28;20187;-60
2023/08/03 15:01:30;;;;;;;0.60;0.60;;;24.50;93.50;;;;;;4994757;28;20207;-60
2023/08/03 15:03:56;;;;;;;0.50;0.50;;;24.40;95.20;;;;;;4994394;28;20389;-60
2023/08/03 15:06:22;;;;;;;0.40;0.40;;;24.20;95.80;;;;;;4994624;28;20461;-61
2023/08/03 15:08:48;;;;;;;0.40;0.30;;;24.00;96.00;;;;;;4994489;28;20744;-60
2023/08/03 15:11:14;;;;;;;0.40;0.40;;;23.80;96.40;;;;;;4994573;28;20249;-61
2023/08/03 15:13:40;;;;;;;0.50;0.50;;;23.60;96.90;;;;;;4993712;28;20469;-61
2023/08/03 15:16:13;;;;;;;0.40;0.40;;;23.50;97.50;;;;;;4994455;28;20210;-60
2023/08/03 15:18:39;;;;;;;0.60;0.60;;;23.30;96.90;;;;;;4994463;28;20708;-62
2023/08/03 15:21:19;;;;;;;0.50;0.50;;;23.20;97.60;;;;;;4994448;28;20471;-60
2023/08/03 15:23:47;;;;;;;0.40;0.30;;;23.10;97.50;;;;;;4994216;28;20385;-61
2023/08/03 15:26:13;;;;;;;0.40;0.40;;;23.10;98.20;;;;;;4994324;28;20420;-60
2023/08/03 15:28:38;;;;;;;0.73;0.70;;;23.00;98.40;;;;;;4976838;28;20821;-60
2023/08/03 15:31:04;;;;;;;0.37;0.37;;;22.90;98.90;;;;;;4993771;28;20389;-60
2023/08/03 15:33:32;;;;;;;0.97;0.40;;;22.90;98.90;;;;;;4993962;28;20186;-59
2023/08/03 15:36:06;;;;;;;0.60;0.47;;;22.90;99.00;;;;;;4994084;28;20201;-60
2023/08/03 15:38:33;;;;;;;2.37;0.70;;;22.90;98.90;;;;;;4994056;28;20507;-60
2023/08/03 15:41:00;;;;;;;0.93;0.70;;;22.90;97.50;;;;;;4994173;28;20438;-60
2023/08/03 15:43:27;;;;;;;0.77;0.70;;;23.00;97.70;;;;;;4993821;28;20443;-61
2023/08/03 15:45:53;;;;;;;0.50;0.40;;;23.10;97.40;;;;;;4994267;28;20484;-61
2023/08/03 15:48:18;;;;;;;0.30;0.30;;;23.10;97.10;;;;;;4994265;28;20853;-61
2023/08/03 15:50:46;;;;;;;0.40;0.30;;;23.10;96.10;;;;;;4993823;28;20549;-61
2023/08/03 15:53:12;;;;;;;0.63;0.30;;;23.20;96.10;;;;;;4994060;28;20173;-60
2023/08/03 15:55:38;;;;;;;0.40;0.20;;;23.30;96.20;;;;;;4993650;28;20425;-60
2023/08/03 15:58:04;;;;;;;1.17;0.50;;;23.40;95.30;;;;;;4994184;28;20258;-60
2023/08/03 16:00:31;;;;;;;0.40;0.40;;;23.50;94.90;;;;;;4993948;28;20454;-61
2023/08/03 16:02:56;;;;;;;0.43;0.40;;;23.60;93.80;;;;;;4993987;28;20429;-60
2023/08/03 16:05:23;;;;;;;0.37;0.37;;;23.60;93.60;;;;;;4993388;28;20421;-61
2023/08/03 16:07:49;;;;;;;0.57;0.40;;;23.60;93.60;;;;;;4993797;28;20605;-60
2023/08/03 16:10:15;;;;;;;0.40;0.40;;;23.50;93.90;;;;;;4993806;28;20427;-60
2023/08/03 16:12:41;;;;;;;0.40;0.40;;;23.50;94.50;;;;;;4993642;28;20206;-61
2023/08/03 16:15:07;;;;;;;0.90;0.50;;;23.40;94.70;;;;;;4993740;28;20202;-61
2023/08/03 16:17:32;;;;;;;0.50;0.50;;;23.30;94.10;;;;;;4993980;28;20227;-59
2023/08/03 16:19:58;;;;;;;0.93;0.63;;;23.30;93.60;;;;;;4993936;28;20464;-61
2023/08/03 16:22:24;;;;;;;0.40;0.40;;;23.20;93.50;;;;;;4993926;28;20216;-61
2023/08/03 16:24:52;;;;;;;0.73;0.50;;;23.10;93.40;;;;;;4993026;28;20449;-61
2023/08/03 16:27:18;;;;;;;0.63;0.60;;;23.10;93.40;;;;;;4993994;28;20179;-61
2023/08/03 16:29:43;;;;;;;0.40;0.40;;;23.10;93.50;;;;;;4993904;28;20681;-61
2023/08/03 16:32:09;;;;;;;0.60;0.60;;;23.10;93.40;;;;;;4993728;28;20654;-61
2023/08/03 16:34:34;;;;;;;0.40;0.30;;;23.10;93.20;;;;;;4992565;28;20213;-61
2023/08/03 16:37:00;;;;;;;0.40;0.40;;;23.00;93.50;;;;;;4993596;28;20188;-61
2023/08/03 16:39:25;;;;;;;0.40;0.40;;;23.00;94.10;;;;;;4993669;28;20171;-61
2023/08/03 16:41:51;;;;;;;0.50;0.40;;;23.10;93.70;;;;;;4993493;28;20225;-61
2023/08/03 16:44:16;;;;;;;0.30;0.30;;;23.10;93.30;;;;;;4992922;28;20179;-61
2023/08/03 16:46:42;;;;;;;0.40;0.40;;;23.20;93.10;;;;;;4993760;28;20179;-60
2023/08/03 16:49:08;;;;;;;0.40;0.33;;;23.20;93.10;;;;;;4994423;28;20178;-61
2023/08/03 16:51:33;;;;;;;0.47;0.40;;;23.10;93.30;;;;;;4997137;28;20266;-60
2023/08/03 16:53:59;;;;;;;1.03;0.50;;;23.10;93.20;;;;;;4997585;28;20175;-60